createdAt,value
2022-08-23T00:02:35.132Z,3.80
2022-08-23T00:06:44.757Z,4.93
2022-08-23T00:10:53.449Z,4.07
2022-08-23T00:15:02.708Z,3.60
2022-08-23T00:19:13.538Z,4.03
2022-08-23T00:23:22.306Z,4.30
2022-08-23T00:27:30.880Z,4.20
2022-08-23T00:31:40.005Z,3.70
2022-08-23T00:35:48.626Z,3.80
2022-08-23T00:39:57.330Z,4.07
2022-08-23T00:44:24.349Z,4.53
2022-08-23T00:48:34.270Z,4.37
2022-08-23T00:52:48.729Z,4.23
2022-08-23T00:56:59.455Z,4.97
2022-08-23T01:01:08.701Z,4.40
2022-08-23T01:05:17.938Z,4.00
2022-08-23T01:09:26.766Z,4.50
2022-08-23T01:13:47.062Z,4.30
2022-08-23T01:18:02.585Z,5.93
2022-08-23T01:22:14.415Z,4.50
2022-08-23T01:26:25.189Z,4.43
2022-08-23T01:30:53.848Z,4.90
2022-08-23T01:35:02.464Z,3.93
2022-08-23T01:39:11.345Z,4.13
2022-08-23T01:43:22.297Z,4.77
2022-08-23T01:47:31.859Z,4.70
2022-08-23T01:51:40.781Z,4.30
2022-08-23T01:56:09.266Z,4.53
2022-08-23T02:00:20.432Z,4.97
2022-08-23T02:04:29.499Z,5.37
2022-08-23T02:08:56.458Z,4.10
2022-08-23T02:13:04.974Z,5.17
2022-08-23T02:17:14.167Z,4.50
2022-08-23T02:21:23.347Z,4.83
2022-08-23T02:25:31.869Z,4.60
2022-08-23T02:29:40.752Z,4.60
2022-08-23T02:38:18.506Z,5.27
2022-08-23T02:42:27.762Z,4.40
2022-08-23T02:46:37.746Z,4.50
2022-08-23T02:50:47.069Z,5.13
2022-08-23T02:54:58.316Z,5.17
2022-08-23T02:59:07.221Z,4.63
2022-08-23T03:03:16.335Z,5.13
2022-08-23T03:07:25.270Z,4.97
2022-08-23T03:11:35.077Z,5.00
2022-08-23T03:15:44.039Z,4.87
2022-08-23T03:19:52.913Z,5.23
2022-08-23T03:24:03.212Z,5.43
2022-08-23T03:28:12.511Z,5.33
2022-08-23T03:32:25.097Z,5.10
2022-08-23T03:36:33.994Z,5.17
2022-08-23T03:40:43.478Z,5.20
2022-08-23T03:44:56.691Z,5.60
2022-08-23T03:49:12.350Z,5.43
2022-08-23T03:53:21.531Z,6.07
2022-08-23T03:57:49.491Z,5.80
2022-08-23T04:01:58.190Z,5.70
2022-08-23T04:06:07.211Z,4.97
2022-08-23T04:10:15.862Z,6.00
2022-08-23T04:14:24.856Z,6.03
2022-08-23T04:18:34.599Z,5.50
2022-08-23T04:22:43.217Z,5.43
2022-08-23T04:26:53.481Z,5.37
2022-08-23T04:31:03.601Z,6.03
2022-08-23T04:35:13.207Z,6.17
2022-08-23T04:39:21.897Z,5.03
2022-08-23T04:43:30.579Z,5.50
2022-08-23T04:47:40.842Z,6.20
2022-08-23T04:51:53.434Z,4.80
2022-08-23T04:56:02.216Z,5.97
2022-08-23T05:00:13.733Z,6.10
2022-08-23T05:04:22.413Z,5.70
2022-08-23T05:08:31.505Z,6.37
2022-08-23T05:12:40.266Z,6.00
2022-08-23T05:16:48.875Z,6.37
2022-08-23T05:20:57.963Z,6.80
2022-08-23T05:25:27.741Z,7.70
2022-08-23T05:29:36.703Z,6.80
2022-08-23T05:33:46.380Z,7.10
2022-08-23T05:37:55.024Z,7.90
2022-08-23T05:42:03.670Z,7.97
2022-08-23T05:46:15.126Z,7.60
2022-08-23T05:50:25.398Z,7.20
2022-08-23T05:54:35.289Z,8.50
2022-08-23T05:58:45.139Z,7.90
2022-08-23T06:02:53.786Z,7.80
2022-08-23T06:07:02.399Z,7.90
2022-08-23T06:11:13.907Z,7.97
2022-08-23T06:15:22.509Z,9.00
2022-08-23T06:19:31.130Z,8.77
2022-08-23T06:23:40.210Z,8.03
2022-08-23T06:27:48.827Z,8.57
2022-08-23T06:31:58.042Z,8.77
2022-08-23T06:36:09.541Z,8.20
2022-08-23T06:40:18.547Z,8.00
2022-08-23T06:44:29.041Z,7.72
2022-08-23T06:48:39.048Z,7.23
2022-08-23T06:52:52.959Z,7.63
2022-08-23T06:57:03.803Z,7.67
2022-08-23T07:01:42.183Z,7.30
2022-08-23T07:05:28.393Z,7.40
2022-08-23T07:09:37.618Z,6.70
2022-08-23T07:13:47.114Z,7.20
2022-08-23T07:17:56.443Z,7.27
2022-08-23T07:22:06.925Z,6.80
2022-08-23T07:26:17.282Z,7.70
2022-08-23T07:30:26.080Z,6.97
2022-08-23T07:34:34.931Z,7.10
2022-08-23T07:38:45.477Z,6.37
2022-08-23T07:42:55.743Z,7.07
2022-08-23T07:47:05.167Z,6.60
2022-08-23T07:51:15.787Z,7.20
2022-08-23T07:55:24.411Z,6.67
2022-08-23T07:59:34.770Z,6.23
2022-08-23T08:03:44.943Z,7.90
2022-08-23T08:07:53.565Z,6.40
2022-08-23T08:12:02.088Z,5.77
2022-08-23T08:16:13.430Z,7.33
2022-08-23T08:20:23.047Z,6.80
2022-08-23T08:24:31.678Z,6.07
2022-08-23T08:28:40.808Z,6.60
2022-08-23T08:32:49.491Z,5.60
2022-08-23T08:36:59.814Z,5.90
2022-08-23T08:41:20.631Z,5.57
2022-08-23T08:45:32.662Z,5.77
2022-08-23T08:49:47.658Z,5.67
2022-08-23T08:53:57.594Z,6.07
2022-08-23T08:58:07.892Z,5.87
2022-08-23T09:02:31.817Z,5.33
2022-08-23T09:06:38.280Z,6.33
2022-08-23T09:10:52.202Z,6.90
2022-08-23T09:15:06.740Z,6.10
2022-08-23T09:19:15.542Z,4.73
2022-08-23T09:23:38.423Z,5.40
2022-08-23T09:28:01.027Z,7.43
2022-08-23T09:32:25.052Z,5.80
2022-08-23T09:36:36.182Z,5.17
2022-08-23T09:40:50.108Z,6.07
2022-08-23T09:44:58.791Z,4.83
2022-08-23T09:49:29.996Z,4.77
2022-08-23T09:53:40.890Z,5.83
2022-08-23T09:57:50.005Z,4.80
2022-08-23T10:02:01.948Z,4.93
2022-08-23T10:06:15.016Z,5.00
2022-08-23T10:10:49.098Z,4.40
2022-08-23T10:14:58.504Z,5.73
2022-08-23T10:19:27.848Z,5.77
2022-08-23T10:23:42.210Z,4.23
2022-08-23T10:28:30.333Z,4.93
2022-08-23T10:32:46.508Z,4.90
2022-08-23T10:37:03.600Z,5.27
2022-08-23T10:41:21.895Z,5.10
2022-08-23T10:45:36.363Z,5.77
2022-08-23T10:49:49.091Z,4.47
2022-08-23T10:54:10.056Z,4.37
2022-08-23T10:58:21.861Z,4.00
2022-08-23T11:02:39.345Z,4.93
2022-08-23T11:06:51.663Z,5.07
2022-08-23T11:11:00.367Z,4.13
2022-08-23T11:15:12.230Z,5.13
2022-08-23T11:19:24.487Z,4.00
2022-08-23T11:23:45.364Z,3.53
2022-08-23T11:28:19.982Z,4.33
2022-08-23T11:32:38.689Z,4.20
2022-08-23T11:37:06.739Z,4.10
2022-08-23T11:41:21.314Z,4.17
2022-08-23T11:45:41.628Z,4.27
2022-08-23T11:49:56.263Z,4.53
2022-08-23T11:54:20.055Z,4.60
2022-08-23T11:58:55.740Z,3.90
2022-08-23T12:03:07.559Z,4.10
2022-08-23T12:07:17.849Z,3.90
2022-08-23T12:11:28.668Z,4.30
2022-08-23T12:16:04.772Z,4.40
2022-08-23T12:20:17.551Z,4.70
2022-08-23T12:24:35.574Z,3.93
2022-08-23T12:28:48.087Z,4.17
2022-08-23T12:33:34.280Z,4.13
2022-08-23T12:37:51.972Z,4.13
2022-08-23T12:42:19.876Z,3.70
2022-08-23T12:46:43.364Z,4.33
2022-08-23T12:51:03.892Z,3.97
2022-08-23T12:55:18.627Z,3.93
2022-08-23T13:00:18.763Z,3.67
2022-08-23T13:04:16.345Z,4.00
2022-08-23T13:08:34.725Z,3.55
2022-08-23T13:12:38.960Z,3.50
2022-08-23T13:16:47.666Z,3.97
2022-08-23T13:21:25.663Z,3.80
2022-08-23T13:25:37.908Z,3.20
2022-08-23T13:30:14.009Z,3.83
2022-08-23T13:34:46.996Z,3.67
2022-08-23T13:38:54.357Z,3.03
2022-08-23T13:43:10.034Z,3.73
2022-08-23T13:47:22.492Z,3.40
2022-08-23T13:52:06.788Z,3.40
2022-08-23T13:55:58.052Z,3.40
2022-08-23T14:00:08.956Z,3.10
2022-08-23T14:04:17.692Z,3.50
2022-08-23T14:08:28.218Z,3.60
2022-08-23T14:12:37.465Z,3.37
2022-08-23T14:16:47.739Z,3.67
2022-08-23T14:20:56.462Z,3.17
2022-08-23T14:25:06.485Z,3.23
2022-08-23T14:29:16.168Z,2.90
2022-08-23T14:33:44.124Z,3.40
2022-08-23T14:38:08.108Z,3.47
2022-08-23T14:42:04.030Z,2.70
2022-08-23T14:46:12.677Z,2.80
2022-08-23T14:50:22.577Z,3.87
2022-08-23T14:54:31.561Z,2.47
2022-08-23T14:58:40.350Z,2.73
2022-08-23T15:02:50.170Z,2.73
2022-08-23T15:07:27.634Z,2.90
2022-08-23T15:15:22.264Z,2.80
2022-08-23T15:19:31.740Z,2.87
2022-08-23T15:23:40.286Z,2.90
2022-08-23T15:27:51.233Z,3.23
2022-08-23T15:31:59.943Z,2.70
2022-08-23T15:36:09.271Z,3.00
2022-08-23T15:40:19.553Z,3.13
2022-08-23T15:44:28.227Z,3.03
2022-08-23T15:48:45.409Z,2.70
2022-08-23T15:52:54.970Z,2.90
2022-08-23T15:57:03.650Z,4.00
2022-08-23T16:01:12.768Z,2.70
2022-08-23T16:05:22.275Z,2.70
2022-08-23T16:09:31.439Z,3.10
2022-08-23T16:13:46.653Z,3.47
2022-08-23T16:17:55.273Z,2.93
2022-08-23T16:22:04.845Z,2.80
2022-08-23T16:26:16.616Z,2.93
2022-08-23T16:30:28.613Z,3.27
2022-08-23T16:34:37.188Z,3.30
2022-08-23T16:38:46.425Z,3.40
2022-08-23T16:42:56.396Z,3.10
2022-08-23T16:47:10.886Z,3.47
2022-08-23T16:51:21.689Z,4.17
2022-08-23T16:55:30.293Z,5.20
2022-08-23T16:59:40.614Z,2.80
2022-08-23T17:03:49.404Z,2.73
2022-08-23T17:07:58.659Z,4.57
2022-08-23T17:12:07.504Z,3.00
2022-08-23T17:16:16.142Z,3.23
2022-08-23T17:20:27.724Z,2.63
2022-08-23T17:24:37.396Z,2.63
2022-08-23T17:28:46.754Z,2.70
2022-08-23T17:32:56.760Z,4.00
2022-08-23T17:37:06.179Z,2.60
2022-08-23T17:41:15.103Z,2.60
2022-08-23T17:45:24.657Z,2.80
2022-08-23T17:49:33.271Z,2.40
2022-08-23T17:53:41.999Z,2.70
2022-08-23T17:57:52.364Z,3.10
2022-08-23T18:02:00.942Z,2.87
2022-08-23T18:06:16.362Z,2.60
2022-08-23T18:10:20.041Z,2.60
2022-08-23T18:14:28.931Z,2.43
2022-08-23T18:18:37.914Z,2.33
2022-08-23T18:22:46.908Z,2.50
2022-08-23T18:27:13.097Z,2.40
2022-08-23T18:31:21.954Z,2.30
2022-08-23T18:35:32.439Z,2.90
2022-08-23T18:39:41.188Z,2.47
2022-08-23T18:43:49.915Z,2.50
2022-08-23T18:47:58.525Z,2.83
2022-08-23T18:52:07.369Z,2.63
2022-08-23T18:56:15.987Z,2.80
2022-08-23T19:00:24.677Z,2.40
2022-08-23T19:04:33.372Z,3.00
2022-08-23T19:08:42.060Z,3.30
2022-08-23T19:13:03.136Z,3.33
2022-08-23T19:17:07.983Z,2.60
2022-08-23T19:21:19.009Z,3.33
2022-08-23T19:25:31.604Z,3.43
2022-08-23T19:29:39.544Z,3.30
2022-08-23T19:33:48.922Z,3.27
2022-08-23T19:37:58.676Z,3.23
2022-08-23T19:42:11.537Z,3.10
2022-08-23T19:46:18.128Z,3.53
2022-08-23T19:50:27.972Z,3.10
2022-08-23T19:54:36.575Z,3.97
2022-08-23T19:58:45.857Z,3.60
2022-08-23T20:02:55.443Z,2.57
2022-08-23T20:07:05.865Z,3.27
2022-08-23T20:11:14.478Z,3.00
2022-08-23T20:15:23.192Z,3.30
2022-08-23T20:19:32.118Z,3.30
2022-08-23T20:23:58.663Z,3.13
2022-08-23T20:28:08.349Z,3.10
2022-08-23T20:32:16.962Z,3.43
2022-08-23T20:36:27.753Z,3.40
2022-08-23T20:40:36.363Z,4.70
2022-08-23T20:44:45.198Z,4.00
2022-08-23T20:48:54.600Z,3.13
2022-08-23T20:53:03.342Z,3.70
2022-08-23T20:57:12.270Z,3.40
2022-08-23T21:01:21.727Z,4.70
2022-08-23T21:05:30.287Z,3.50
2022-08-23T21:09:39.637Z,3.80
2022-08-23T21:14:07.600Z,3.30
2022-08-23T21:18:16.266Z,3.40
2022-08-23T21:22:44.241Z,3.60
2022-08-23T21:26:52.860Z,4.00
2022-08-23T21:31:10.429Z,3.80
2022-08-23T21:35:19.138Z,3.87
2022-08-23T21:39:27.828Z,4.10
2022-08-23T21:43:37.374Z,3.57
2022-08-23T21:47:46.071Z,3.53
2022-08-23T21:51:54.699Z,4.00
2022-08-23T21:56:03.375Z,3.63
2022-08-23T22:00:14.946Z,4.00
2022-08-23T22:04:23.651Z,3.73
2022-08-23T22:08:32.470Z,4.00
2022-08-23T22:12:41.364Z,4.70
2022-08-23T22:16:55.100Z,5.03
2022-08-23T22:21:02.857Z,4.47
2022-08-23T22:25:12.501Z,5.27
2022-08-23T22:29:21.115Z,4.03
2022-08-23T22:33:29.972Z,4.67
2022-08-23T22:37:53.594Z,4.03
2022-08-23T22:41:50.273Z,3.93
2022-08-23T22:46:04.458Z,3.97
2022-08-23T22:50:13.263Z,3.73
2022-08-23T22:54:21.902Z,3.33
2022-08-23T22:58:30.586Z,3.80
2022-08-23T23:02:39.585Z,3.93
2022-08-23T23:06:50.441Z,3.55
2022-08-23T23:11:02.409Z,3.70
2022-08-23T23:15:11.707Z,4.23
2022-08-23T23:19:39.344Z,3.97
2022-08-23T23:23:47.945Z,3.97
2022-08-23T23:27:56.584Z,3.83
2022-08-23T23:32:07.139Z,3.83
2022-08-23T23:36:17.433Z,4.13
2022-08-23T23:40:27.052Z,4.00
2022-08-23T23:44:35.632Z,4.70
2022-08-23T23:48:46.876Z,4.63
2022-08-23T23:52:55.836Z,4.33
2022-08-23T23:57:06.394Z,4.73
